sensor_id;sensor_type;location;lat;lon;timestamp;P1;durP1;ratioP1;P2;durP2;ratioP2
62707;SDS011;48769;51.624;5.886;2023-08-01T00:02:03;11.85;;;8.05;;
62707;SDS011;48769;51.624;5.886;2023-08-01T00:04:28;9.98;;;7.90;;
62707;SDS011;48769;51.624;5.886;2023-08-01T00:06:54;12.38;;;9.05;;
62707;SDS011;48769;51.624;5.886;2023-08-01T00:09:20;11.82;;;9.23;;
62707;SDS011;48769;51.624;5.886;2023-08-01T00:11:45;13.32;;;10.00;;
62707;SDS011;48769;51.624;5.886;2023-08-01T00:14:11;15.23;;;11.63;;
62707;SDS011;48769;51.624;5.886;2023-08-01T00:16:36;15.10;;;12.07;;
62707;SDS011;48769;51.624;5.886;2023-08-01T00:19:02;17.63;;;12.30;;
62707;SDS011;48769;51.624;5.886;2023-08-01T00:21:27;15.57;;;12.32;;
62707;SDS011;48769;51.624;5.886;2023-08-01T00:23:52;18.10;;;14.40;;
62707;SDS011;48769;51.624;5.886;2023-08-01T00:26:18;20.45;;;14.63;;
62707;SDS011;48769;51.624;5.886;2023-08-01T00:28:43;18.60;;;14.07;;
62707;SDS011;48769;51.624;5.886;2023-08-01T00:31:08;21.77;;;13.90;;
62707;SDS011;48769;51.624;5.886;2023-08-01T00:33:34;20.08;;;14.50;;
62707;SDS011;48769;51.624;5.886;2023-08-01T00:35:59;24.30;;;16.85;;
62707;SDS011;48769;51.624;5.886;2023-08-01T00:38:25;19.67;;;14.65;;
62707;SDS011;48769;51.624;5.886;2023-08-01T00:40:50;21.65;;;14.68;;
62707;SDS011;48769;51.624;5.886;2023-08-01T00:43:16;20.45;;;15.40;;
62707;SDS011;48769;51.624;5.886;2023-08-01T00:45:41;22.10;;;15.98;;
62707;SDS011;48769;51.624;5.886;2023-08-01T00:48:07;28.45;;;16.25;;
62707;SDS011;48769;51.624;5.886;2023-08-01T00:50:33;21.67;;;15.32;;
62707;SDS011;48769;51.624;5.886;2023-08-01T00:52:58;22.65;;;16.42;;
62707;SDS011;48769;51.624;5.886;2023-08-01T00:55:23;24.95;;;16.15;;
62707;SDS011;48769;51.624;5.886;2023-08-01T00:57:51;22.88;;;17.20;;
62707;SDS011;48769;51.624;5.886;2023-08-01T01:00:18;26.38;;;16.52;;
62707;SDS011;48769;51.624;5.886;2023-08-01T01:02:43;25.30;;;17.17;;
62707;SDS011;48769;51.624;5.886;2023-08-01T01:05:09;24.70;;;17.05;;
62707;SDS011;48769;51.624;5.886;2023-08-01T01:07:38;28.63;;;18.60;;
62707;SDS011;48769;51.624;5.886;2023-08-01T01:10:05;27.25;;;17.58;;
62707;SDS011;48769;51.624;5.886;2023-08-01T01:12:30;27.02;;;16.98;;
62707;SDS011;48769;51.624;5.886;2023-08-01T01:14:56;27.58;;;19.17;;
62707;SDS011;48769;51.624;5.886;2023-08-01T01:17:21;26.63;;;18.25;;
62707;SDS011;48769;51.624;5.886;2023-08-01T01:19:47;28.60;;;19.65;;
62707;SDS011;48769;51.624;5.886;2023-08-01T01:22:12;27.27;;;18.20;;
62707;SDS011;48769;51.624;5.886;2023-08-01T01:24:38;27.00;;;18.92;;
62707;SDS011;48769;51.624;5.886;2023-08-01T01:27:06;30.75;;;19.08;;
62707;SDS011;48769;51.624;5.886;2023-08-01T01:29:33;27.58;;;19.92;;
62707;SDS011;48769;51.624;5.886;2023-08-01T01:32:01;28.95;;;19.90;;
62707;SDS011;48769;51.624;5.886;2023-08-01T01:34:28;33.67;;;18.70;;
62707;SDS011;48769;51.624;5.886;2023-08-01T01:36:54;28.45;;;19.00;;
62707;SDS011;48769;51.624;5.886;2023-08-01T01:39:19;26.70;;;18.13;;
62707;SDS011;48769;51.624;5.886;2023-08-01T01:41:45;30.08;;;19.27;;
62707;SDS011;48769;51.624;5.886;2023-08-01T01:44:10;29.20;;;18.15;;
62707;SDS011;48769;51.624;5.886;2023-08-01T01:46:36;36.05;;;16.65;;
62707;SDS011;48769;51.624;5.886;2023-08-01T01:49:01;25.58;;;17.25;;
62707;SDS011;48769;51.624;5.886;2023-08-01T01:51:26;22.67;;;16.38;;
62707;SDS011;48769;51.624;5.886;2023-08-01T01:53:52;23.65;;;16.60;;
62707;SDS011;48769;51.624;5.886;2023-08-01T01:56:18;26.15;;;16.05;;
62707;SDS011;48769;51.624;5.886;2023-08-01T01:58:43;28.75;;;15.57;;
62707;SDS011;48769;51.624;5.886;2023-08-01T02:01:08;25.27;;;15.43;;
62707;SDS011;48769;51.624;5.886;2023-08-01T02:03:34;25.40;;;15.38;;
62707;SDS011;48769;51.624;5.886;2023-08-01T02:06:00;24.20;;;14.63;;
62707;SDS011;48769;51.624;5.886;2023-08-01T02:08:28;27.55;;;15.45;;
62707;SDS011;48769;51.624;5.886;2023-08-01T02:10:53;27.90;;;15.43;;
62707;SDS011;48769;51.624;5.886;2023-08-01T02:13:20;28.27;;;15.55;;
62707;SDS011;48769;51.624;5.886;2023-08-01T02:15:45;23.10;;;14.40;;
62707;SDS011;48769;51.624;5.886;2023-08-01T02:18:10;22.35;;;14.65;;
62707;SDS011;48769;51.624;5.886;2023-08-01T02:20:35;23.65;;;14.45;;
62707;SDS011;48769;51.624;5.886;2023-08-01T02:23:01;24.08;;;14.20;;
62707;SDS011;48769;51.624;5.886;2023-08-01T02:25:26;25.42;;;15.35;;
62707;SDS011;48769;51.624;5.886;2023-08-01T02:27:51;32.22;;;15.43;;
62707;SDS011;48769;51.624;5.886;2023-08-01T02:30:17;25.90;;;14.38;;
62707;SDS011;48769;51.624;5.886;2023-08-01T02:32:42;32.63;;;14.85;;
62707;SDS011;48769;51.624;5.886;2023-08-01T02:35:07;26.65;;;14.10;;
62707;SDS011;48769;51.624;5.886;2023-08-01T02:37:33;26.67;;;14.77;;
62707;SDS011;48769;51.624;5.886;2023-08-01T02:39:58;31.38;;;16.40;;
62707;SDS011;48769;51.624;5.886;2023-08-01T02:42:23;30.65;;;16.65;;
62707;SDS011;48769;51.624;5.886;2023-08-01T02:44:49;24.15;;;15.75;;
62707;SDS011;48769;51.624;5.886;2023-08-01T02:47:14;26.15;;;16.85;;
62707;SDS011;48769;51.624;5.886;2023-08-01T02:49:39;30.02;;;15.50;;
62707;SDS011;48769;51.624;5.886;2023-08-01T02:52:05;28.25;;;16.88;;
62707;SDS011;48769;51.624;5.886;2023-08-01T02:54:30;28.23;;;18.55;;
62707;SDS011;48769;51.624;5.886;2023-08-01T02:56:55;32.20;;;17.75;;
62707;SDS011;48769;51.624;5.886;2023-08-01T02:59:21;28.60;;;17.55;;
62707;SDS011;48769;51.624;5.886;2023-08-01T03:01:46;34.90;;;18.23;;
62707;SDS011;48769;51.624;5.886;2023-08-01T03:04:12;30.90;;;18.13;;
62707;SDS011;48769;51.624;5.886;2023-08-01T03:06:37;31.67;;;18.45;;
62707;SDS011;48769;51.624;5.886;2023-08-01T03:09:03;29.65;;;17.38;;
62707;SDS011;48769;51.624;5.886;2023-08-01T03:11:32;31.90;;;16.88;;
62707;SDS011;48769;51.624;5.886;2023-08-01T03:13:58;25.27;;;16.90;;
62707;SDS011;48769;51.624;5.886;2023-08-01T03:16:24;36.25;;;18.00;;
62707;SDS011;48769;51.624;5.886;2023-08-01T03:18:49;28.50;;;18.67;;
62707;SDS011;48769;51.624;5.886;2023-08-01T03:21:14;31.40;;;19.17;;
62707;SDS011;48769;51.624;5.886;2023-08-01T03:23:39;34.97;;;20.13;;
62707;SDS011;48769;51.624;5.886;2023-08-01T03:26:05;39.65;;;19.45;;
62707;SDS011;48769;51.624;5.886;2023-08-01T03:28:30;36.17;;;19.63;;
62707;SDS011;48769;51.624;5.886;2023-08-01T03:30:55;34.42;;;20.77;;
62707;SDS011;48769;51.624;5.886;2023-08-01T03:33:21;40.17;;;20.58;;
62707;SDS011;48769;51.624;5.886;2023-08-01T03:35:46;42.65;;;20.95;;
62707;SDS011;48769;51.624;5.886;2023-08-01T03:38:11;37.25;;;22.50;;
62707;SDS011;48769;51.624;5.886;2023-08-01T03:40:37;41.10;;;23.45;;
62707;SDS011;48769;51.624;5.886;2023-08-01T03:43:02;38.63;;;24.20;;
62707;SDS011;48769;51.624;5.886;2023-08-01T03:45:28;39.30;;;23.10;;
62707;SDS011;48769;51.624;5.886;2023-08-01T03:47:53;42.28;;;25.88;;
62707;SDS011;48769;51.624;5.886;2023-08-01T03:50:18;41.33;;;25.15;;
62707;SDS011;48769;51.624;5.886;2023-08-01T03:52:44;43.75;;;24.48;;
62707;SDS011;48769;51.624;5.886;2023-08-01T03:55:10;41.10;;;25.13;;
62707;SDS011;48769;51.624;5.886;2023-08-01T03:57:35;48.72;;;25.98;;
62707;SDS011;48769;51.624;5.886;2023-08-01T04:00:01;43.15;;;26.35;;
62707;SDS011;48769;51.624;5.886;2023-08-01T04:02:28;46.35;;;26.17;;
62707;SDS011;48769;51.624;5.886;2023-08-01T04:04:53;43.42;;;26.15;;
62707;SDS011;48769;51.624;5.886;2023-08-01T04:07:18;41.45;;;25.75;;
62707;SDS011;48769;51.624;5.886;2023-08-01T04:09:44;47.85;;;27.48;;
62707;SDS011;48769;51.624;5.886;2023-08-01T04:12:09;49.22;;;27.88;;
62707;SDS011;48769;51.624;5.886;2023-08-01T04:14:35;44.63;;;26.90;;
62707;SDS011;48769;51.624;5.886;2023-08-01T04:17:00;51.00;;;28.88;;
62707;SDS011;48769;51.624;5.886;2023-08-01T04:19:25;50.28;;;28.25;;
62707;SDS011;48769;51.624;5.886;2023-08-01T04:21:51;46.00;;;28.33;;
62707;SDS011;48769;51.624;5.886;2023-08-01T04:24:16;52.92;;;28.23;;
62707;SDS011;48769;51.624;5.886;2023-08-01T04:26:41;44.92;;;28.05;;
62707;SDS011;48769;51.624;5.886;2023-08-01T04:29:07;49.65;;;28.92;;
62707;SDS011;48769;51.624;5.886;2023-08-01T04:31:32;48.78;;;31.05;;
62707;SDS011;48769;51.624;5.886;2023-08-01T04:33:57;55.60;;;30.25;;
62707;SDS011;48769;51.624;5.886;2023-08-01T04:36:23;47.80;;;29.02;;
62707;SDS011;48769;51.624;5.886;2023-08-01T04:38:48;54.53;;;29.83;;
62707;SDS011;48769;51.624;5.886;2023-08-01T04:41:13;48.28;;;29.02;;
62707;SDS011;48769;51.624;5.886;2023-08-01T04:43:39;53.75;;;29.33;;
62707;SDS011;48769;51.624;5.886;2023-08-01T04:46:04;55.63;;;28.98;;
62707;SDS011;48769;51.624;5.886;2023-08-01T04:48:29;53.72;;;29.70;;
62707;SDS011;48769;51.624;5.886;2023-08-01T04:50:55;49.30;;;30.65;;
62707;SDS011;48769;51.624;5.886;2023-08-01T04:53:20;51.97;;;30.20;;
62707;SDS011;48769;51.624;5.886;2023-08-01T04:55:45;50.80;;;29.58;;
62707;SDS011;48769;51.624;5.886;2023-08-01T04:58:10;48.05;;;30.25;;
62707;SDS011;48769;51.624;5.886;2023-08-01T05:00:37;48.67;;;29.88;;
62707;SDS011;48769;51.624;5.886;2023-08-01T05:03:02;48.13;;;29.77;;
62707;SDS011;48769;51.624;5.886;2023-08-01T05:05:28;57.42;;;29.88;;
62707;SDS011;48769;51.624;5.886;2023-08-01T05:07:53;49.67;;;29.55;;
62707;SDS011;48769;51.624;5.886;2023-08-01T05:10:18;49.75;;;28.90;;
62707;SDS011;48769;51.624;5.886;2023-08-01T05:12:44;43.67;;;27.98;;
62707;SDS011;48769;51.624;5.886;2023-08-01T05:15:09;45.33;;;27.58;;
62707;SDS011;48769;51.624;5.886;2023-08-01T05:17:35;53.92;;;30.05;;
62707;SDS011;48769;51.624;5.886;2023-08-01T05:20:00;49.58;;;29.27;;
62707;SDS011;48769;51.624;5.886;2023-08-01T05:22:25;51.13;;;29.92;;
62707;SDS011;48769;51.624;5.886;2023-08-01T05:24:51;52.03;;;29.67;;
62707;SDS011;48769;51.624;5.886;2023-08-01T05:27:16;47.90;;;29.35;;
62707;SDS011;48769;51.624;5.886;2023-08-01T05:29:42;45.05;;;28.70;;
62707;SDS011;48769;51.624;5.886;2023-08-01T05:32:08;47.17;;;28.73;;
62707;SDS011;48769;51.624;5.886;2023-08-01T05:34:33;44.35;;;30.05;;
62707;SDS011;48769;51.624;5.886;2023-08-01T05:36:58;55.70;;;29.88;;
62707;SDS011;48769;51.624;5.886;2023-08-01T05:39:23;44.17;;;27.65;;
62707;SDS011;48769;51.624;5.886;2023-08-01T05:41:49;46.03;;;28.15;;
62707;SDS011;48769;51.624;5.886;2023-08-01T05:44:15;41.55;;;27.83;;
62707;SDS011;48769;51.624;5.886;2023-08-01T05:46:41;45.33;;;28.85;;
62707;SDS011;48769;51.624;5.886;2023-08-01T05:49:06;43.83;;;27.83;;
62707;SDS011;48769;51.624;5.886;2023-08-01T05:51:32;48.78;;;28.50;;
62707;SDS011;48769;51.624;5.886;2023-08-01T05:53:57;41.83;;;28.67;;
62707;SDS011;48769;51.624;5.886;2023-08-01T05:56:22;43.97;;;28.27;;
62707;SDS011;48769;51.624;5.886;2023-08-01T05:58:48;41.38;;;27.33;;
62707;SDS011;48769;51.624;5.886;2023-08-01T06:01:13;43.25;;;28.40;;
62707;SDS011;48769;51.624;5.886;2023-08-01T06:03:39;40.33;;;26.38;;
62707;SDS011;48769;51.624;5.886;2023-08-01T06:06:04;38.83;;;27.20;;
62707;SDS011;48769;51.624;5.886;2023-08-01T06:08:30;33.28;;;25.13;;
62707;SDS011;48769;51.624;5.886;2023-08-01T06:10:55;38.03;;;24.70;;
62707;SDS011;48769;51.624;5.886;2023-08-01T06:13:21;30.30;;;21.92;;
62707;SDS011;48769;51.624;5.886;2023-08-01T06:15:46;41.67;;;23.67;;
62707;SDS011;48769;51.624;5.886;2023-08-01T06:18:11;36.13;;;22.42;;
62707;SDS011;48769;51.624;5.886;2023-08-01T06:20:37;28.58;;;21.77;;
62707;SDS011;48769;51.624;5.886;2023-08-01T06:23:03;33.58;;;22.65;;
62707;SDS011;48769;51.624;5.886;2023-08-01T06:25:28;35.75;;;21.70;;
62707;SDS011;48769;51.624;5.886;2023-08-01T06:27:53;33.38;;;20.75;;
62707;SDS011;48769;51.624;5.886;2023-08-01T06:30:19;36.63;;;22.17;;
62707;SDS011;48769;51.624;5.886;2023-08-01T06:32:44;29.55;;;19.10;;
62707;SDS011;48769;51.624;5.886;2023-08-01T06:35:10;30.88;;;18.80;;
62707;SDS011;48769;51.624;5.886;2023-08-01T06:37:35;31.88;;;19.48;;
62707;SDS011;48769;51.624;5.886;2023-08-01T06:40:00;34.17;;;19.25;;
62707;SDS011;48769;51.624;5.886;2023-08-01T06:42:27;28.25;;;19.52;;
62707;SDS011;48769;51.624;5.886;2023-08-01T06:44:52;32.90;;;20.70;;
62707;SDS011;48769;51.624;5.886;2023-08-01T06:47:18;34.72;;;18.35;;
62707;SDS011;48769;51.624;5.886;2023-08-01T06:49:43;34.42;;;19.23;;
62707;SDS011;48769;51.624;5.886;2023-08-01T06:52:08;30.92;;;18.63;;
62707;SDS011;48769;51.624;5.886;2023-08-01T06:54:34;27.15;;;18.65;;
62707;SDS011;48769;51.624;5.886;2023-08-01T06:56:59;29.75;;;18.00;;
62707;SDS011;48769;51.624;5.886;2023-08-01T06:59:25;31.92;;;18.48;;
62707;SDS011;48769;51.624;5.886;2023-08-01T07:01:51;25.75;;;16.42;;
62707;SDS011;48769;51.624;5.886;2023-08-01T07:04:16;26.58;;;16.27;;
62707;SDS011;48769;51.624;5.886;2023-08-01T07:06:41;24.58;;;15.75;;
62707;SDS011;48769;51.624;5.886;2023-08-01T07:09:07;23.25;;;15.60;;
62707;SDS011;48769;51.624;5.886;2023-08-01T07:11:32;27.75;;;14.13;;
62707;SDS011;48769;51.624;5.886;2023-08-01T07:13:57;22.00;;;14.15;;
62707;SDS011;48769;51.624;5.886;2023-08-01T07:16:23;22.88;;;13.80;;
62707;SDS011;48769;51.624;5.886;2023-08-01T07:18:48;24.38;;;14.10;;
62707;SDS011;48769;51.624;5.886;2023-08-01T07:21:15;23.05;;;12.95;;
62707;SDS011;48769;51.624;5.886;2023-08-01T07:23:41;23.25;;;12.93;;
62707;SDS011;48769;51.624;5.886;2023-08-01T07:26:06;27.98;;;13.75;;
62707;SDS011;48769;51.624;5.886;2023-08-01T07:28:32;18.05;;;12.65;;
62707;SDS011;48769;51.624;5.886;2023-08-01T07:30:58;19.38;;;12.18;;
62707;SDS011;48769;51.624;5.886;2023-08-01T07:33:24;20.15;;;12.40;;
62707;SDS011;48769;51.624;5.886;2023-08-01T07:35:49;16.80;;;11.73;;
62707;SDS011;48769;51.624;5.886;2023-08-01T07:38:15;23.20;;;12.40;;
62707;SDS011;48769;51.624;5.886;2023-08-01T07:40:40;21.05;;;11.88;;
62707;SDS011;48769;51.624;5.886;2023-08-01T07:43:06;15.85;;;9.45;;
62707;SDS011;48769;51.624;5.886;2023-08-01T07:45:33;16.23;;;9.50;;
62707;SDS011;48769;51.624;5.886;2023-08-01T07:47:59;19.95;;;9.32;;
62707;SDS011;48769;51.624;5.886;2023-08-01T07:50:25;20.02;;;10.32;;
62707;SDS011;48769;51.624;5.886;2023-08-01T07:52:51;16.30;;;9.27;;
62707;SDS011;48769;51.624;5.886;2023-08-01T07:55:16;15.00;;;10.32;;
62707;SDS011;48769;51.624;5.886;2023-08-01T07:57:43;16.60;;;9.32;;
62707;SDS011;48769;51.624;5.886;2023-08-01T08:00:09;19.58;;;9.50;;
62707;SDS011;48769;51.624;5.886;2023-08-01T08:02:35;16.80;;;9.60;;
62707;SDS011;48769;51.624;5.886;2023-08-01T08:05:00;17.92;;;8.73;;
62707;SDS011;48769;51.624;5.886;2023-08-01T08:07:26;15.65;;;9.60;;
62707;SDS011;48769;51.624;5.886;2023-08-01T08:09:51;20.63;;;10.30;;
62707;SDS011;48769;51.624;5.886;2023-08-01T08:12:16;15.75;;;9.45;;
62707;SDS011;48769;51.624;5.886;2023-08-01T08:14:42;15.55;;;8.77;;
62707;SDS011;48769;51.624;5.886;2023-08-01T08:17:07;15.25;;;8.48;;
62707;SDS011;48769;51.624;5.886;2023-08-01T08:19:32;13.05;;;8.60;;
62707;SDS011;48769;51.624;5.886;2023-08-01T08:21:58;14.10;;;7.45;;
62707;SDS011;48769;51.624;5.886;2023-08-01T08:24:23;15.68;;;7.80;;
62707;SDS011;48769;51.624;5.886;2023-08-01T08:26:48;15.15;;;7.15;;
62707;SDS011;48769;51.624;5.886;2023-08-01T08:29:14;14.13;;;6.85;;
62707;SDS011;48769;51.624;5.886;2023-08-01T08:31:39;14.77;;;8.18;;
62707;SDS011;48769;51.624;5.886;2023-08-01T08:34:04;15.85;;;7.03;;
62707;SDS011;48769;51.624;5.886;2023-08-01T08:36:29;12.57;;;8.18;;
62707;SDS011;48769;51.624;5.886;2023-08-01T08:38:55;15.85;;;7.78;;
62707;SDS011;48769;51.624;5.886;2023-08-01T08:41:21;15.27;;;7.75;;
62707;SDS011;48769;51.624;5.886;2023-08-01T08:43:48;14.10;;;7.90;;
62707;SDS011;48769;51.624;5.886;2023-08-01T08:46:15;17.15;;;7.60;;
62707;SDS011;48769;51.624;5.886;2023-08-01T08:48:41;11.65;;;6.95;;
62707;SDS011;48769;51.624;5.886;2023-08-01T08:51:09;13.27;;;6.95;;
62707;SDS011;48769;51.624;5.886;2023-08-01T08:53:36;15.63;;;6.70;;
62707;SDS011;48769;51.624;5.886;2023-08-01T08:56:01;8.80;;;5.18;;
62707;SDS011;48769;51.624;5.886;2023-08-01T08:58:29;14.55;;;6.43;;
62707;SDS011;48769;51.624;5.886;2023-08-01T09:00:56;11.80;;;5.82;;
62707;SDS011;48769;51.624;5.886;2023-08-01T09:03:22;9.55;;;5.88;;
62707;SDS011;48769;51.624;5.886;2023-08-01T09:05:51;9.65;;;5.38;;
62707;SDS011;48769;51.624;5.886;2023-08-01T09:08:24;10.50;;;5.20;;
62707;SDS011;48769;51.624;5.886;2023-08-01T09:10:53;12.55;;;5.57;;
62707;SDS011;48769;51.624;5.886;2023-08-01T09:13:18;12.02;;;5.53;;
62707;SDS011;48769;51.624;5.886;2023-08-01T09:15:43;14.25;;;6.40;;
62707;SDS011;48769;51.624;5.886;2023-08-01T09:18:11;17.55;;;6.95;;
62707;SDS011;48769;51.624;5.886;2023-08-01T09:20:42;12.75;;;6.55;;
62707;SDS011;48769;51.624;5.886;2023-08-01T09:23:09;11.30;;;5.93;;
62707;SDS011;48769;51.624;5.886;2023-08-01T09:25:36;12.95;;;5.68;;
62707;SDS011;48769;51.624;5.886;2023-08-01T09:28:02;9.23;;;5.03;;
62707;SDS011;48769;51.624;5.886;2023-08-01T09:30:27;12.68;;;4.72;;
62707;SDS011;48769;51.624;5.886;2023-08-01T09:32:56;6.50;;;3.78;;
62707;SDS011;48769;51.624;5.886;2023-08-01T09:35:22;7.10;;;3.83;;
62707;SDS011;48769;51.624;5.886;2023-08-01T09:37:48;8.48;;;4.00;;
62707;SDS011;48769;51.624;5.886;2023-08-01T09:40:14;8.52;;;4.28;;
62707;SDS011;48769;51.624;5.886;2023-08-01T09:42:40;9.07;;;4.93;;
62707;SDS011;48769;51.624;5.886;2023-08-01T09:45:14;7.72;;;4.22;;
62707;SDS011;48769;51.624;5.886;2023-08-01T09:47:41;8.63;;;4.05;;
62707;SDS011;48769;51.624;5.886;2023-08-01T09:50:08;9.23;;;4.22;;
62707;SDS011;48769;51.624;5.886;2023-08-01T09:52:35;11.15;;;4.25;;
62707;SDS011;48769;51.624;5.886;2023-08-01T09:55:00;11.40;;;4.55;;
62707;SDS011;48769;51.624;5.886;2023-08-01T09:57:27;12.07;;;3.20;;
62707;SDS011;48769;51.624;5.886;2023-08-01T09:59:58;7.93;;;3.97;;
62707;SDS011;48769;51.624;5.886;2023-08-01T10:02:25;11.88;;;4.57;;
62707;SDS011;48769;51.624;5.886;2023-08-01T10:04:54;10.93;;;4.65;;
62707;SDS011;48769;51.624;5.886;2023-08-01T10:07:26;9.27;;;4.50;;
62707;SDS011;48769;51.624;5.886;2023-08-01T10:09:57;11.60;;;4.22;;
62707;SDS011;48769;51.624;5.886;2023-08-01T10:12:26;11.38;;;4.30;;
62707;SDS011;48769;51.624;5.886;2023-08-01T10:14:52;11.63;;;4.57;;
62707;SDS011;48769;51.624;5.886;2023-08-01T10:17:19;13.70;;;4.80;;
62707;SDS011;48769;51.624;5.886;2023-08-01T10:19:46;11.82;;;4.68;;
62707;SDS011;48769;51.624;5.886;2023-08-01T10:22:14;13.85;;;4.53;;
62707;SDS011;48769;51.624;5.886;2023-08-01T10:24:40;8.43;;;3.70;;
62707;SDS011;48769;51.624;5.886;2023-08-01T10:29:38;9.53;;;4.13;;
62707;SDS011;48769;51.624;5.886;2023-08-01T10:32:05;12.88;;;4.70;;
62707;SDS011;48769;51.624;5.886;2023-08-01T10:34:32;8.82;;;3.90;;
62707;SDS011;48769;51.624;5.886;2023-08-01T10:36:57;10.02;;;4.22;;
62707;SDS011;48769;51.624;5.886;2023-08-01T10:39:24;11.57;;;3.97;;
62707;SDS011;48769;51.624;5.886;2023-08-01T10:41:58;16.23;;;4.35;;
62707;SDS011;48769;51.624;5.886;2023-08-01T10:44:27;9.52;;;4.10;;
62707;SDS011;48769;51.624;5.886;2023-08-01T10:49:34;9.25;;;3.72;;
62707;SDS011;48769;51.624;5.886;2023-08-01T10:52:01;9.88;;;3.95;;
62707;SDS011;48769;51.624;5.886;2023-08-01T10:54:28;13.43;;;3.65;;
62707;SDS011;48769;51.624;5.886;2023-08-01T10:56:56;10.55;;;4.40;;
62707;SDS011;48769;51.624;5.886;2023-08-01T10:59:25;11.30;;;4.20;;
62707;SDS011;48769;51.624;5.886;2023-08-01T11:01:57;13.30;;;3.97;;
62707;SDS011;48769;51.624;5.886;2023-08-01T11:04:24;14.48;;;4.53;;
62707;SDS011;48769;51.624;5.886;2023-08-01T11:06:50;11.95;;;4.38;;
62707;SDS011;48769;51.624;5.886;2023-08-01T11:09:26;9.25;;;4.00;;
62707;SDS011;48769;51.624;5.886;2023-08-01T11:11:53;12.60;;;3.88;;
62707;SDS011;48769;51.624;5.886;2023-08-01T11:14:22;15.02;;;3.80;;
62707;SDS011;48769;51.624;5.886;2023-08-01T11:16:49;10.05;;;3.53;;
62707;SDS011;48769;51.624;5.886;2023-08-01T11:19:22;10.13;;;3.85;;
62707;SDS011;48769;51.624;5.886;2023-08-01T11:21:52;11.00;;;4.18;;
62707;SDS011;48769;51.624;5.886;2023-08-01T11:24:19;11.57;;;3.83;;
62707;SDS011;48769;51.624;5.886;2023-08-01T11:26:45;8.63;;;3.33;;
62707;SDS011;48769;51.624;5.886;2023-08-01T11:29:13;9.85;;;3.75;;
62707;SDS011;48769;51.624;5.886;2023-08-01T11:31:39;12.07;;;3.38;;
62707;SDS011;48769;51.624;5.886;2023-08-01T11:34:08;12.95;;;3.30;;
62707;SDS011;48769;51.624;5.886;2023-08-01T11:36:35;10.00;;;3.28;;
62707;SDS011;48769;51.624;5.886;2023-08-01T11:39:00;7.90;;;3.03;;
62707;SDS011;48769;51.624;5.886;2023-08-01T11:41:27;10.60;;;3.40;;
62707;SDS011;48769;51.624;5.886;2023-08-01T11:43:53;12.20;;;3.83;;
62707;SDS011;48769;51.624;5.886;2023-08-01T11:46:19;13.05;;;4.07;;
62707;SDS011;48769;51.624;5.886;2023-08-01T11:48:45;11.63;;;3.53;;
62707;SDS011;48769;51.624;5.886;2023-08-01T11:51:17;9.88;;;3.25;;
62707;SDS011;48769;51.624;5.886;2023-08-01T11:53:42;8.98;;;3.38;;
62707;SDS011;48769;51.624;5.886;2023-08-01T11:56:08;12.65;;;4.03;;
62707;SDS011;48769;51.624;5.886;2023-08-01T11:58:45;12.70;;;3.83;;
62707;SDS011;48769;51.624;5.886;2023-08-01T12:01:11;20.92;;;4.60;;
62707;SDS011;48769;51.624;5.886;2023-08-01T12:03:44;13.13;;;3.80;;
62707;SDS011;48769;51.624;5.886;2023-08-01T12:06:11;10.45;;;3.40;;
62707;SDS011;48769;51.624;5.886;2023-08-01T12:08:38;13.18;;;3.53;;
62707;SDS011;48769;51.624;5.886;2023-08-01T12:11:05;8.65;;;3.00;;
62707;SDS011;48769;51.624;5.886;2023-08-01T12:13:30;15.82;;;3.78;;
62707;SDS011;48769;51.624;5.886;2023-08-01T12:15:56;10.10;;;3.17;;
62707;SDS011;48769;51.624;5.886;2023-08-01T12:18:26;12.18;;;3.60;;
62707;SDS011;48769;51.624;5.886;2023-08-01T12:20:53;16.05;;;3.92;;
62707;SDS011;48769;51.624;5.886;2023-08-01T12:23:18;12.98;;;3.55;;
62707;SDS011;48769;51.624;5.886;2023-08-01T12:25:44;9.10;;;3.40;;
62707;SDS011;48769;51.624;5.886;2023-08-01T12:28:10;11.27;;;2.42;;
62707;SDS011;48769;51.624;5.886;2023-08-01T12:30:36;8.50;;;2.45;;
62707;SDS011;48769;51.624;5.886;2023-08-01T12:33:04;7.07;;;2.30;;
62707;SDS011;48769;51.624;5.886;2023-08-01T12:35:29;6.53;;;2.20;;
62707;SDS011;48769;51.624;5.886;2023-08-01T12:37:55;8.60;;;2.30;;
62707;SDS011;48769;51.624;5.886;2023-08-01T12:40:21;7.00;;;2.08;;
62707;SDS011;48769;51.624;5.886;2023-08-01T12:42:47;4.85;;;2.08;;
62707;SDS011;48769;51.624;5.886;2023-08-01T12:45:12;10.07;;;2.28;;
62707;SDS011;48769;51.624;5.886;2023-08-01T12:47:37;6.25;;;2.22;;
62707;SDS011;48769;51.624;5.886;2023-08-01T12:50:03;5.45;;;2.00;;
62707;SDS011;48769;51.624;5.886;2023-08-01T12:52:28;6.55;;;2.53;;
62707;SDS011;48769;51.624;5.886;2023-08-01T12:54:54;5.93;;;2.05;;
62707;SDS011;48769;51.624;5.886;2023-08-01T12:57:19;8.70;;;2.25;;
62707;SDS011;48769;51.624;5.886;2023-08-01T12:59:44;9.15;;;2.35;;
62707;SDS011;48769;51.624;5.886;2023-08-01T13:02:09;7.28;;;2.10;;
62707;SDS011;48769;51.624;5.886;2023-08-01T13:04:35;7.03;;;2.47;;
62707;SDS011;48769;51.624;5.886;2023-08-01T13:07:00;8.57;;;2.40;;
62707;SDS011;48769;51.624;5.886;2023-08-01T13:09:26;5.57;;;2.33;;
62707;SDS011;48769;51.624;5.886;2023-08-01T13:11:51;8.93;;;3.15;;
62707;SDS011;48769;51.624;5.886;2023-08-01T13:14:17;7.28;;;2.60;;
62707;SDS011;48769;51.624;5.886;2023-08-01T13:16:42;7.80;;;2.72;;
62707;SDS011;48769;51.624;5.886;2023-08-01T13:19:07;8.32;;;2.65;;
62707;SDS011;48769;51.624;5.886;2023-08-01T13:21:33;8.07;;;2.55;;
62707;SDS011;48769;51.624;5.886;2023-08-01T13:23:59;7.55;;;2.53;;
62707;SDS011;48769;51.624;5.886;2023-08-01T13:26:29;8.55;;;2.45;;
62707;SDS011;48769;51.624;5.886;2023-08-01T13:28:58;7.45;;;2.40;;
62707;SDS011;48769;51.624;5.886;2023-08-01T13:31:23;13.32;;;2.65;;
62707;SDS011;48769;51.624;5.886;2023-08-01T13:33:49;10.20;;;2.78;;
62707;SDS011;48769;51.624;5.886;2023-08-01T13:36:14;8.80;;;2.40;;
62707;SDS011;48769;51.624;5.886;2023-08-01T13:38:42;7.22;;;2.78;;
62707;SDS011;48769;51.624;5.886;2023-08-01T13:41:07;7.13;;;2.33;;
62707;SDS011;48769;51.624;5.886;2023-08-01T13:43:32;7.05;;;2.28;;
62707;SDS011;48769;51.624;5.886;2023-08-01T13:45:58;9.77;;;2.28;;
62707;SDS011;48769;51.624;5.886;2023-08-01T13:48:23;7.57;;;2.70;;
62707;SDS011;48769;51.624;5.886;2023-08-01T13:50:48;8.95;;;2.40;;
62707;SDS011;48769;51.624;5.886;2023-08-01T13:53:14;7.97;;;2.53;;
62707;SDS011;48769;51.624;5.886;2023-08-01T13:55:41;9.18;;;2.47;;
62707;SDS011;48769;51.624;5.886;2023-08-01T13:58:06;7.80;;;2.30;;
62707;SDS011;48769;51.624;5.886;2023-08-01T14:00:31;6.47;;;2.20;;
62707;SDS011;48769;51.624;5.886;2023-08-01T14:02:57;8.05;;;2.83;;
62707;SDS011;48769;51.624;5.886;2023-08-01T14:05:26;7.75;;;2.53;;
62707;SDS011;48769;51.624;5.886;2023-08-01T14:07:51;5.72;;;2.25;;
62707;SDS011;48769;51.624;5.886;2023-08-01T14:10:18;7.13;;;2.33;;
62707;SDS011;48769;51.624;5.886;2023-08-01T14:12:43;5.55;;;2.20;;
62707;SDS011;48769;51.624;5.886;2023-08-01T14:15:09;8.75;;;2.53;;
62707;SDS011;48769;51.624;5.886;2023-08-01T14:17:34;8.40;;;2.42;;
62707;SDS011;48769;51.624;5.886;2023-08-01T14:20:00;6.32;;;2.15;;
62707;SDS011;48769;51.624;5.886;2023-08-01T14:22:25;11.10;;;2.70;;
62707;SDS011;48769;51.624;5.886;2023-08-01T14:24:50;10.13;;;3.03;;
62707;SDS011;48769;51.624;5.886;2023-08-01T14:27:16;6.85;;;2.25;;
62707;SDS011;48769;51.624;5.886;2023-08-01T14:29:41;6.63;;;2.05;;